x

Ilm2 - 5 Miles Se Of Wrightsville Beach, Nc (41038) Weather Station

4:08pm - Sat 24th Sep 2016 All times are EDT. -4 hours from GMT.

  • Wind
    7mph, 9mph gusts
  • Sea Temp 82°f
  • 空気 Temp 80°f
  • Sea Pressure 1017mb
  • Ilm2 - 5 Miles Se Of Wrightsville Beach, Nc
  • Ilm2 - 5 Miles Se Of Wrightsville Beach, Nc

More Historic Weather Station data

Upgrade to MSW Pro to gain access to the past 30 days of data for over 8000 Wavebouys and Weather Stations around the globe.

Join Pro

Comparision Forecast

View Surf forecast
   
Sat 09/24 4:08pm 7 9 mph 1017mb 82f 80f
3:08pm 4 9 mph 1017mb 82f 80f
2:08pm 7 9 mph 1017.5mb 82f 80f
1:08pm 7 9 mph 1018.4mb 81f 80f
12:08pm 7 11 mph 1018.7mb 81f 79f
11:08am 9 13 mph 1018.8mb 81f 78f
10:08am 11 13 mph 1018.6mb 81f 78f
9:08am 9 13 mph 1018.3mb 81f 77f
8:08am 13 16 mph 1018mb 81f 77f
7:08am 11 16 mph 1017.3mb 81f 78f
6:08am 11 16 mph 1016.6mb 81f 77f
5:08am 11 16 mph 1016.2mb 81f 77f
4:08am 11 16 mph 1016mb 81f 79f
3:08am 11 13 mph 1016.4mb 81f 78f
2:08am 9 13 mph 1016.4mb 81f 78f
1:08am 9 13 mph 1016.5mb 81f 78f
12:08am 11 16 mph 1016.6mb 81f 77f
Fri 09/23 11:08pm 11 13 mph 1016.4mb 81f 79f
10:08pm 9 13 mph 1016.2mb 81f 78f
9:08pm 11 16 mph 1016.1mb 81f 78f
8:08pm 11 16 mph 1016.1mb 81f 77f
7:08pm 13 18 mph 1015.7mb 81f 78f
6:08pm 16 18 mph 1015.7mb 82f 78f
5:08pm 7 11 mph 1015.5mb 82f 79f
4:08pm 2 7 mph 1015.2mb 82f 81f
3:08pm 7 9 mph 1015.1mb 81f 80f
2:08pm 11 16 mph 1015.7mb 81f 80f
1:08pm 9 13 mph 1016.3mb 81f 79f
12:08pm 13 18 mph 1016.7mb 81f 79f
11:08am 18 22 mph 1017.1mb 81f 79f
10:08am 9 13 mph 1017.3mb 80f 79f
9:08am 13 18 mph 1017mb 80f 75f
8:08am 16 20 mph 1016.9mb 80f 77f
7:08am 16 20 mph 1016.1mb 80f 78f
6:08am 13 18 mph 1016mb 80f 78f
5:08am 11 13 mph 1016.3mb 80f 78f
4:08am 4 9 mph 1016.2mb 80f 78f
3:08am 7 11 mph 1015.6mb 81f 79f
2:08am 2 4 mph 1016mb 81f 80f
1:08am 7 13 mph 1015.8mb 81f 80f
12:08am 7 9 mph 1016.2mb 81f 81f
Thu 09/22 11:08pm 9 11 mph 1016.1mb 81f 81f
10:08pm 9 11 mph 1016.3mb 81f 80f
9:08pm 4 9 mph 1016mb 81f 80f
8:08pm 7 9 mph 1016.3mb 80f 78f
7:08pm 7 11 mph 1016.2mb 81f 78f
6:08pm 4 7 mph 1016.2mb 81f 78f
5:08pm 2 4 mph 1016.3mb 80f 77f
4:08pm 7 9 mph 1015.1mb 80f 75f
3:08pm 9 11 mph 1015.6mb 80f 77f
2:08pm 9 13 mph 1017.2mb 80f 76f
1:08pm 16 20 mph 1017.4mb 80f 75f
12:08pm 13 22 mph 1017.7mb 80f 74f
11:08am 13 22 mph 1017.7mb 81f 77f
10:08am 16 27 mph 1017mb 81f 78f
9:08am 9 16 mph 1017.3mb 81f 77f
8:08am 16 20 mph 1016.1mb 81f 79f
7:08am 11 16 mph 1016.1mb 81f 79f
6:08am 11 16 mph 1015.7mb 81f 76f
5:08am 4 7 mph 1015.4mb 81f 80f
4:08am 9 13 mph 1015.3mb 81f 78f
3:08am 11 13 mph 1015.3mb 81f 77f
2:08am 9 13 mph 1015.6mb 81f 77f
1:08am 7 11 mph 1016mb 81f 76f
12:08am 4 9 mph 1016.1mb 81f 79f
Wed 09/21 11:08pm 4 7 mph 1016.4mb 81f 78f
10:08pm 7 11 mph 1016.4mb 81f 78f
9:08pm 9 11 mph 1016mb 81f 79f
8:08pm 7 9 mph 1015.7mb 82f 80f
7:08pm 7 11 mph 1015.4mb 82f 79f
6:08pm 9 11 mph 1015.1mb 82f 80f
5:08pm 7 11 mph 1015.2mb 82f 79f
4:08pm 7 9 mph 1015mb 82f 79f
3:08pm 4 7 mph 1015.2mb 82f 78f
1:08pm 7 9 mph 1015.5mb 82f 77f
12:08pm 2 4 mph 1015.9mb 81f 78f
11:08am 2 4 mph 1015.9mb 81f 76f
10:08am 4 7 mph 1015.6mb 81f 76f
9:08am 4 7 mph 1015.1mb 81f 74f
8:08am 7 9 mph 1014.7mb 81f 73f
7:08am 7 9 mph 1014.4mb 81f 73f
6:08am 9 13 mph 1013.8mb 81f 73f
5:08am 9 13 mph 1013.5mb 81f 74f
4:08am 9 11 mph 1013.6mb 81f 74f
3:08am 9 13 mph 1013.9mb 81f 74f
2:08am 9 13 mph 1014.2mb 81f 74f
1:08am 11 16 mph 1014.4mb 81f 74f
12:08am 13 18 mph 1014.7mb 81f 75f
Tue 09/20 11:08pm 13 22 mph 1014.9mb 81f 75f
10:08pm 16 22 mph 1014.9mb 81f 75f
9:08pm 13 18 mph 1015.3mb 81f 75f